sensor_id;sensor_type;location;lat;lon;timestamp;temperature;humidity
65637;DHT22;52327;42.622;23.316;2023-02-18T00:01:16;4.10;59.94
65637;DHT22;52327;42.622;23.316;2023-02-18T00:03:42;4.00;61.78
65637;DHT22;52327;42.622;23.316;2023-02-18T00:08:41;3.97;61.81
65637;DHT22;52327;42.622;23.316;2023-02-18T00:11:07;3.97;60.86
65637;DHT22;52327;42.622;23.316;2023-02-18T00:13:33;3.90;61.86
65637;DHT22;52327;42.622;23.316;2023-02-18T00:16:04;3.75;63.13
65637;DHT22;52327;42.622;23.316;2023-02-18T00:18:30;3.90;59.11
65637;DHT22;52327;42.622;23.316;2023-02-18T00:20:56;3.99;60.66
65637;DHT22;52327;42.622;23.316;2023-02-18T00:23:21;3.95;61.68
65637;DHT22;52327;42.622;23.316;2023-02-18T00:25:58;3.85;61.55
65637;DHT22;52327;42.622;23.316;2023-02-18T00:28:24;3.83;61.99
65637;DHT22;52327;42.622;23.316;2023-02-18T00:30:49;3.64;61.48
65637;DHT22;52327;42.622;23.316;2023-02-18T00:33:14;3.72;62.02
65637;DHT22;52327;42.622;23.316;2023-02-18T00:35:40;3.69;61.28
65637;DHT22;52327;42.622;23.316;2023-02-18T00:38:05;3.66;62.17
65637;DHT22;52327;42.622;23.316;2023-02-18T00:40:31;3.72;61.91
65637;DHT22;52327;42.622;23.316;2023-02-18T00:42:56;3.72;61.57
65637;DHT22;52327;42.622;23.316;2023-02-18T00:45:21;3.61;62.37
65637;DHT22;52327;42.622;23.316;2023-02-18T00:47:47;3.28;62.73
65637;DHT22;52327;42.622;23.316;2023-02-18T00:50:12;3.24;62.03
65637;DHT22;52327;42.622;23.316;2023-02-18T00:52:37;3.27;63.70
65637;DHT22;52327;42.622;23.316;2023-02-18T00:55:03;3.24;63.42
65637;DHT22;52327;42.622;23.316;2023-02-18T00:57:28;3.18;63.26
65637;DHT22;52327;42.622;23.316;2023-02-18T00:59:54;3.30;63.34
65637;DHT22;52327;42.622;23.316;2023-02-18T01:02:19;3.25;63.82
65637;DHT22;52327;42.622;23.316;2023-02-18T01:04:44;3.34;63.49
65637;DHT22;52327;42.622;23.316;2023-02-18T01:07:10;3.21;65.26
65637;DHT22;52327;42.622;23.316;2023-02-18T01:09:35;3.17;66.01
65637;DHT22;52327;42.622;23.316;2023-02-18T01:12:01;3.30;64.23
65637;DHT22;52327;42.622;23.316;2023-02-18T01:14:27;3.32;63.46
65637;DHT22;52327;42.622;23.316;2023-02-18T01:16:52;3.21;65.06
65637;DHT22;52327;42.622;23.316;2023-02-18T01:19:17;3.10;64.85
65637;DHT22;52327;42.622;23.316;2023-02-18T01:21:43;3.07;65.16
65637;DHT22;52327;42.622;23.316;2023-02-18T01:24:08;3.05;66.02
65637;DHT22;52327;42.622;23.316;2023-02-18T01:26:34;3.11;64.51
65637;DHT22;52327;42.622;23.316;2023-02-18T01:28:59;3.03;65.61
65637;DHT22;52327;42.622;23.316;2023-02-18T01:31:25;3.01;66.14
65637;DHT22;52327;42.622;23.316;2023-02-18T01:33:50;3.07;64.39
65637;DHT22;52327;42.622;23.316;2023-02-18T01:36:17;2.96;65.66
65637;DHT22;52327;42.622;23.316;2023-02-18T01:38:43;2.91;64.69
65637;DHT22;52327;42.622;23.316;2023-02-18T01:41:08;2.90;64.84
65637;DHT22;52327;42.622;23.316;2023-02-18T01:43:36;2.80;66.30
65637;DHT22;52327;42.622;23.316;2023-02-18T01:48:43;2.91;64.66
65637;DHT22;52327;42.622;23.316;2023-02-18T01:51:18;2.99;63.40
65637;DHT22;52327;42.622;23.316;2023-02-18T01:59:02;2.93;63.54
65637;DHT22;52327;42.622;23.316;2023-02-18T02:01:28;3.01;64.20
65637;DHT22;52327;42.622;23.316;2023-02-18T02:03:55;2.97;63.80
65637;DHT22;52327;42.622;23.316;2023-02-18T02:06:22;3.03;63.68
65637;DHT22;52327;42.622;23.316;2023-02-18T02:08:49;2.94;64.19
65637;DHT22;52327;42.622;23.316;2023-02-18T02:11:38;2.94;65.09
65637;DHT22;52327;42.622;23.316;2023-02-18T02:20:06;3.01;63.78
65637;DHT22;52327;42.622;23.316;2023-02-18T02:36:40;3.13;61.88
65637;DHT22;52327;42.622;23.316;2023-02-18T02:45:06;3.08;64.29
65637;DHT22;52327;42.622;23.316;2023-02-18T02:47:36;3.11;62.98
65637;DHT22;52327;42.622;23.316;2023-02-18T02:50:16;3.08;63.13
65637;DHT22;52327;42.622;23.316;2023-02-18T02:52:48;3.01;62.84
65637;DHT22;52327;42.622;23.316;2023-02-18T02:55:15;3.11;63.21
65637;DHT22;52327;42.622;23.316;2023-02-18T02:57:52;2.99;64.49
65637;DHT22;52327;42.622;23.316;2023-02-18T03:00:30;2.82;63.54
65637;DHT22;52327;42.622;23.316;2023-02-18T03:03:16;2.79;63.85
65637;DHT22;52327;42.622;23.316;2023-02-18T03:08:45;2.77;63.92
65637;DHT22;52327;42.622;23.316;2023-02-18T03:11:14;2.94;62.09
65637;DHT22;52327;42.622;23.316;2023-02-18T03:14:06;3.23;62.48
65637;DHT22;52327;42.622;23.316;2023-02-18T03:16:44;3.35;61.66
65637;DHT22;52327;42.622;23.316;2023-02-18T03:21:59;3.05;63.04
65637;DHT22;52327;42.622;23.316;2023-02-18T03:24:29;2.99;61.74
65637;DHT22;52327;42.622;23.316;2023-02-18T03:29:51;3.00;64.97
65637;DHT22;52327;42.622;23.316;2023-02-18T03:32:20;3.04;65.07
65637;DHT22;52327;42.622;23.316;2023-02-18T03:34:52;3.04;64.93
65637;DHT22;52327;42.622;23.316;2023-02-18T03:37:19;2.89;65.89
65637;DHT22;52327;42.622;23.316;2023-02-18T03:39:48;2.79;65.80
65637;DHT22;52327;42.622;23.316;2023-02-18T03:42:16;2.77;64.87
65637;DHT22;52327;42.622;23.316;2023-02-18T03:44:43;2.73;64.62
65637;DHT22;52327;42.622;23.316;2023-02-18T03:47:08;2.66;65.02
65637;DHT22;52327;42.622;23.316;2023-02-18T03:49:34;2.72;64.76
65637;DHT22;52327;42.622;23.316;2023-02-18T03:51:59;2.77;65.53
65637;DHT22;52327;42.622;23.316;2023-02-18T03:54:25;2.87;64.72
65637;DHT22;52327;42.622;23.316;2023-02-18T03:56:50;2.90;63.59
65637;DHT22;52327;42.622;23.316;2023-02-18T03:59:15;2.83;65.40
65637;DHT22;52327;42.622;23.316;2023-02-18T04:01:41;2.77;65.82
65637;DHT22;52327;42.622;23.316;2023-02-18T04:04:06;2.84;64.38
65637;DHT22;52327;42.622;23.316;2023-02-18T04:06:32;2.72;65.51
65637;DHT22;52327;42.622;23.316;2023-02-18T04:08:57;2.75;64.92
65637;DHT22;52327;42.622;23.316;2023-02-18T04:11:23;2.79;65.54
65637;DHT22;52327;42.622;23.316;2023-02-18T04:13:48;2.64;66.16
65637;DHT22;52327;42.622;23.316;2023-02-18T04:16:14;2.57;66.86
65637;DHT22;52327;42.622;23.316;2023-02-18T04:18:39;2.48;66.05
65637;DHT22;52327;42.622;23.316;2023-02-18T04:21:05;2.45;66.88
65637;DHT22;52327;42.622;23.316;2023-02-18T04:23:30;2.48;67.62
65637;DHT22;52327;42.622;23.316;2023-02-18T04:25:55;2.57;67.11
65637;DHT22;52327;42.622;23.316;2023-02-18T04:28:21;2.43;68.26
65637;DHT22;52327;42.622;23.316;2023-02-18T04:30:46;2.56;67.40
65637;DHT22;52327;42.622;23.316;2023-02-18T04:33:12;2.67;64.61
65637;DHT22;52327;42.622;23.316;2023-02-18T04:35:38;2.67;66.97
65637;DHT22;52327;42.622;23.316;2023-02-18T04:38:07;2.70;66.18
65637;DHT22;52327;42.622;23.316;2023-02-18T04:40:33;2.72;64.81
65637;DHT22;52327;42.622;23.316;2023-02-18T04:42:59;2.79;63.27
65637;DHT22;52327;42.622;23.316;2023-02-18T04:45:26;2.93;62.46
65637;DHT22;52327;42.622;23.316;2023-02-18T04:47:52;3.07;63.65
65637;DHT22;52327;42.622;23.316;2023-02-18T04:50:18;3.23;61.08
65637;DHT22;52327;42.622;23.316;2023-02-18T04:52:44;3.21;63.10
65637;DHT22;52327;42.622;23.316;2023-02-18T04:55:09;3.31;61.32
65637;DHT22;52327;42.622;23.316;2023-02-18T04:57:35;3.39;61.64
65637;DHT22;52327;42.622;23.316;2023-02-18T05:00:01;3.46;61.77
65637;DHT22;52327;42.622;23.316;2023-02-18T05:02:30;3.35;63.24
65637;DHT22;52327;42.622;23.316;2023-02-18T05:04:56;3.36;62.82
65637;DHT22;52327;42.622;23.316;2023-02-18T05:07:21;3.39;63.94
65637;DHT22;52327;42.622;23.316;2023-02-18T05:09:46;3.28;62.28
65637;DHT22;52327;42.622;23.316;2023-02-18T05:12:12;3.30;63.11
65637;DHT22;52327;42.622;23.316;2023-02-18T05:14:37;3.38;62.31
65637;DHT22;52327;42.622;23.316;2023-02-18T05:17:03;3.42;62.32
65637;DHT22;52327;42.622;23.316;2023-02-18T05:19:28;3.34;62.28
65637;DHT22;52327;42.622;23.316;2023-02-18T05:21:53;3.44;61.24
65637;DHT22;52327;42.622;23.316;2023-02-18T05:24:19;3.56;62.30
65637;DHT22;52327;42.622;23.316;2023-02-18T05:26:44;3.58;63.64
65637;DHT22;52327;42.622;23.316;2023-02-18T05:29:09;3.38;65.31
65637;DHT22;52327;42.622;23.316;2023-02-18T05:31:35;3.25;65.45
65637;DHT22;52327;42.622;23.316;2023-02-18T05:34:02;3.24;65.42
65637;DHT22;52327;42.622;23.316;2023-02-18T05:36:28;3.35;62.57
65637;DHT22;52327;42.622;23.316;2023-02-18T05:38:53;3.55;63.98
65637;DHT22;52327;42.622;23.316;2023-02-18T05:41:19;3.45;64.43
65637;DHT22;52327;42.622;23.316;2023-02-18T05:43:44;3.52;62.88
65637;DHT22;52327;42.622;23.316;2023-02-18T05:46:29;3.55;61.33
65637;DHT22;52327;42.622;23.316;2023-02-18T05:48:54;3.93;57.79
65637;DHT22;52327;42.622;23.316;2023-02-18T05:51:19;4.05;61.12
65637;DHT22;52327;42.622;23.316;2023-02-18T05:53:45;4.06;60.01
65637;DHT22;52327;42.622;23.316;2023-02-18T05:56:10;4.33;60.30
65637;DHT22;52327;42.622;23.316;2023-02-18T05:58:36;4.30;60.39
65637;DHT22;52327;42.622;23.316;2023-02-18T06:01:01;4.58;57.60
65637;DHT22;52327;42.622;23.316;2023-02-18T06:03:27;4.72;59.29
65637;DHT22;52327;42.622;23.316;2023-02-18T06:05:53;4.75;59.79
65637;DHT22;52327;42.622;23.316;2023-02-18T06:08:18;4.77;59.62
65637;DHT22;52327;42.622;23.316;2023-02-18T06:10:47;4.85;59.85
65637;DHT22;52327;42.622;23.316;2023-02-18T06:13:12;4.91;58.48
65637;DHT22;52327;42.622;23.316;2023-02-18T06:15:38;5.18;56.20
65637;DHT22;52327;42.622;23.316;2023-02-18T06:18:04;5.22;59.64
65637;DHT22;52327;42.622;23.316;2023-02-18T06:20:29;5.32;59.98
65637;DHT22;52327;42.622;23.316;2023-02-18T06:22:55;5.44;58.99
65637;DHT22;52327;42.622;23.316;2023-02-18T06:25:20;5.47;59.91
65637;DHT22;52327;42.622;23.316;2023-02-18T06:27:45;5.53;59.64
65637;DHT22;52327;42.622;23.316;2023-02-18T06:30:11;5.51;61.02
65637;DHT22;52327;42.622;23.316;2023-02-18T06:32:36;5.63;58.83
65637;DHT22;52327;42.622;23.316;2023-02-18T06:35:02;5.61;60.87
65637;DHT22;52327;42.622;23.316;2023-02-18T06:37:27;5.71;57.07
65637;DHT22;52327;42.622;23.316;2023-02-18T06:39:53;5.86;58.40
65637;DHT22;52327;42.622;23.316;2023-02-18T06:42:18;5.71;57.62
65637;DHT22;52327;42.622;23.316;2023-02-18T06:44:43;5.73;58.87
65637;DHT22;52327;42.622;23.316;2023-02-18T06:47:09;5.94;58.07
65637;DHT22;52327;42.622;23.316;2023-02-18T06:49:34;5.98;57.20
65637;DHT22;52327;42.622;23.316;2023-02-18T06:52:00;6.14;56.59
65637;DHT22;52327;42.622;23.316;2023-02-18T06:54:26;6.45;56.46
65637;DHT22;52327;42.622;23.316;2023-02-18T06:56:54;6.45;56.48
65637;DHT22;52327;42.622;23.316;2023-02-18T06:59:19;6.50;58.29
65637;DHT22;52327;42.622;23.316;2023-02-18T07:01:45;6.68;57.49
65637;DHT22;52327;42.622;23.316;2023-02-18T07:04:10;6.72;56.50
65637;DHT22;52327;42.622;23.316;2023-02-18T07:06:35;6.83;57.29
65637;DHT22;52327;42.622;23.316;2023-02-18T07:09:01;7.24;54.40
65637;DHT22;52327;42.622;23.316;2023-02-18T07:11:26;7.40;54.21
65637;DHT22;52327;42.622;23.316;2023-02-18T07:13:51;7.37;53.46
65637;DHT22;52327;42.622;23.316;2023-02-18T07:16:17;7.21;52.68
65637;DHT22;52327;42.622;23.316;2023-02-18T07:18:42;7.15;52.37
65637;DHT22;52327;42.622;23.316;2023-02-18T07:21:08;7.24;52.38
65637;DHT22;52327;42.622;23.316;2023-02-18T07:23:33;7.59;50.45
65637;DHT22;52327;42.622;23.316;2023-02-18T07:26:06;7.69;52.61
65637;DHT22;52327;42.622;23.316;2023-02-18T07:28:32;7.74;52.14
65637;DHT22;52327;42.622;23.316;2023-02-18T07:30:58;7.74;52.49
65637;DHT22;52327;42.622;23.316;2023-02-18T07:33:23;7.81;53.21
65637;DHT22;52327;42.622;23.316;2023-02-18T07:35:56;7.79;53.25
65637;DHT22;52327;42.622;23.316;2023-02-18T07:38:22;7.75;52.65
65637;DHT22;52327;42.622;23.316;2023-02-18T07:40:48;7.68;53.62
65637;DHT22;52327;42.622;23.316;2023-02-18T07:43:14;7.72;51.31
65637;DHT22;52327;42.622;23.316;2023-02-18T07:45:39;7.85;51.53
65637;DHT22;52327;42.622;23.316;2023-02-18T07:48:05;7.83;50.64
65637;DHT22;52327;42.622;23.316;2023-02-18T07:50:31;7.90;50.67
65637;DHT22;52327;42.622;23.316;2023-02-18T07:53:03;7.89;51.45
65637;DHT22;52327;42.622;23.316;2023-02-18T07:55:30;7.86;52.24
65637;DHT22;52327;42.622;23.316;2023-02-18T07:58:15;7.88;52.47
65637;DHT22;52327;42.622;23.316;2023-02-18T08:00:40;8.03;52.31
65637;DHT22;52327;42.622;23.316;2023-02-18T08:03:11;8.17;52.25
65637;DHT22;52327;42.622;23.316;2023-02-18T08:05:36;8.34;51.66
65637;DHT22;52327;42.622;23.316;2023-02-18T08:08:02;8.54;50.00
65637;DHT22;52327;42.622;23.316;2023-02-18T08:10:27;8.78;49.93
65637;DHT22;52327;42.622;23.316;2023-02-18T08:12:53;8.84;50.77
65637;DHT22;52327;42.622;23.316;2023-02-18T08:15:18;8.98;50.21
65637;DHT22;52327;42.622;23.316;2023-02-18T08:17:43;9.16;47.99
65637;DHT22;52327;42.622;23.316;2023-02-18T08:20:09;9.38;46.01
65637;DHT22;52327;42.622;23.316;2023-02-18T08:22:35;9.56;47.10
65637;DHT22;52327;42.622;23.316;2023-02-18T08:25:00;9.66;47.31
65637;DHT22;52327;42.622;23.316;2023-02-18T08:27:26;9.86;46.70
65637;DHT22;52327;42.622;23.316;2023-02-18T08:29:51;10.04;45.84
65637;DHT22;52327;42.622;23.316;2023-02-18T08:32:17;10.10;45.79
65637;DHT22;52327;42.622;23.316;2023-02-18T08:34:42;10.17;43.77
65637;DHT22;52327;42.622;23.316;2023-02-18T08:37:08;10.30;43.48
65637;DHT22;52327;42.622;23.316;2023-02-18T08:39:34;10.38;43.91
65637;DHT22;52327;42.622;23.316;2023-02-18T08:42:00;10.24;43.28
65637;DHT22;52327;42.622;23.316;2023-02-18T08:44:26;10.34;42.28
65637;DHT22;52327;42.622;23.316;2023-02-18T08:46:51;10.17;42.31
65637;DHT22;52327;42.622;23.316;2023-02-18T08:49:17;10.03;43.42
65637;DHT22;52327;42.622;23.316;2023-02-18T08:51:45;10.24;42.73
65637;DHT22;52327;42.622;23.316;2023-02-18T08:54:11;10.45;43.25
65637;DHT22;52327;42.622;23.316;2023-02-18T08:56:36;10.49;41.82
65637;DHT22;52327;42.622;23.316;2023-02-18T08:59:02;10.37;43.17
65637;DHT22;52327;42.622;23.316;2023-02-18T09:01:27;10.40;43.15
65637;DHT22;52327;42.622;23.316;2023-02-18T09:03:52;10.40;42.93
65637;DHT22;52327;42.622;23.316;2023-02-18T09:06:18;10.38;43.16
65637;DHT22;52327;42.622;23.316;2023-02-18T09:08:43;10.42;43.95
65637;DHT22;52327;42.622;23.316;2023-02-18T09:11:10;10.38;44.14
65637;DHT22;52327;42.622;23.316;2023-02-18T09:13:36;10.41;43.80
65637;DHT22;52327;42.622;23.316;2023-02-18T09:18:30;10.48;42.45
65637;DHT22;52327;42.622;23.316;2023-02-18T09:20:58;10.46;43.06
65637;DHT22;52327;42.622;23.316;2023-02-18T09:23:29;10.40;43.91
65637;DHT22;52327;42.622;23.316;2023-02-18T09:25:55;10.41;44.10
65637;DHT22;52327;42.622;23.316;2023-02-18T09:28:21;10.21;44.39
65637;DHT22;52327;42.622;23.316;2023-02-18T09:30:47;10.17;43.17
65637;DHT22;52327;42.622;23.316;2023-02-18T09:33:12;10.22;44.28
65637;DHT22;52327;42.622;23.316;2023-02-18T09:35:42;10.31;44.94
65637;DHT22;52327;42.622;23.316;2023-02-18T09:38:14;10.48;44.55
65637;DHT22;52327;42.622;23.316;2023-02-18T09:40:46;10.62;43.75
65637;DHT22;52327;42.622;23.316;2023-02-18T09:45:45;10.88;42.83
65637;DHT22;52327;42.622;23.316;2023-02-18T09:48:11;11.16;40.86
65637;DHT22;52327;42.622;23.316;2023-02-18T09:50:36;11.24;41.45
65637;DHT22;52327;42.622;23.316;2023-02-18T09:53:03;11.36;40.97
65637;DHT22;52327;42.622;23.316;2023-02-18T09:55:34;11.50;39.43
65637;DHT22;52327;42.622;23.316;2023-02-18T09:58:07;11.54;39.75
65637;DHT22;52327;42.622;23.316;2023-02-18T10:00:41;11.31;39.79
65637;DHT22;52327;42.622;23.316;2023-02-18T10:03:13;10.75;40.52
65637;DHT22;52327;42.622;23.316;2023-02-18T10:05:55;10.56;41.99
65637;DHT22;52327;42.622;23.316;2023-02-18T10:08:26;10.79;41.15
65637;DHT22;52327;42.622;23.316;2023-02-18T10:10:52;11.06;41.35
65637;DHT22;52327;42.622;23.316;2023-02-18T10:13:20;11.27;41.54
65637;DHT22;52327;42.622;23.316;2023-02-18T10:15:47;11.36;40.72
65637;DHT22;52327;42.622;23.316;2023-02-18T10:18:32;11.47;40.56
65637;DHT22;52327;42.622;23.316;2023-02-18T10:23:32;11.73;40.35
65637;DHT22;52327;42.622;23.316;2023-02-18T10:26:01;11.79;41.05
65637;DHT22;52327;42.622;23.316;2023-02-18T10:28:28;11.86;40.52
65637;DHT22;52327;42.622;23.316;2023-02-18T10:31:01;11.81;40.12
65637;DHT22;52327;42.622;23.316;2023-02-18T10:33:41;11.86;41.99
65637;DHT22;52327;42.622;23.316;2023-02-18T10:36:45;11.92;40.58
65637;DHT22;52327;42.622;23.316;2023-02-18T10:45:05;11.47;39.99
65637;DHT22;52327;42.622;23.316;2023-02-18T10:47:49;11.73;39.74
65637;DHT22;52327;42.622;23.316;2023-02-18T10:50:37;12.02;40.57
65637;DHT22;52327;42.622;23.316;2023-02-18T10:55:40;12.97;38.09
65637;DHT22;52327;42.622;23.316;2023-02-18T11:00:50;13.82;37.63
65637;DHT22;52327;42.622;23.316;2023-02-18T11:03:19;13.87;37.43
65637;DHT22;52327;42.622;23.316;2023-02-18T11:05:46;13.58;37.10
65637;DHT22;52327;42.622;23.316;2023-02-18T11:08:27;13.47;36.98
65637;DHT22;52327;42.622;23.316;2023-02-18T11:10:53;13.61;38.11
65637;DHT22;52327;42.622;23.316;2023-02-18T11:13:25;13.86;37.66
65637;DHT22;52327;42.622;23.316;2023-02-18T11:16:04;14.13;37.94
65637;DHT22;52327;42.622;23.316;2023-02-18T11:21:30;14.36;37.50
65637;DHT22;52327;42.622;23.316;2023-02-18T11:23:57;14.37;36.29
65637;DHT22;52327;42.622;23.316;2023-02-18T11:26:32;14.48;36.68
65637;DHT22;52327;42.622;23.316;2023-02-18T11:29:05;14.43;36.80
65637;DHT22;52327;42.622;23.316;2023-02-18T11:31:52;14.48;37.11
65637;DHT22;52327;42.622;23.316;2023-02-18T11:34:25;14.48;37.43
65637;DHT22;52327;42.622;23.316;2023-02-18T11:36:51;14.47;37.53
65637;DHT22;52327;42.622;23.316;2023-02-18T11:39:25;14.64;36.63
65637;DHT22;52327;42.622;23.316;2023-02-18T11:41:57;14.67;36.18
65637;DHT22;52327;42.622;23.316;2023-02-18T11:44:35;14.68;35.96
65637;DHT22;52327;42.622;23.316;2023-02-18T11:47:06;14.77;34.95
65637;DHT22;52327;42.622;23.316;2023-02-18T11:50:13;14.81;35.07
65637;DHT22;52327;42.622;23.316;2023-02-18T11:52:41;14.93;34.94
65637;DHT22;52327;42.622;23.316;2023-02-18T11:57:48;15.25;34.20
65637;DHT22;52327;42.622;23.316;2023-02-18T12:00:40;15.29;33.81
65637;DHT22;52327;42.622;23.316;2023-02-18T12:05:49;15.64;34.56
65637;DHT22;52327;42.622;23.316;2023-02-18T12:08:26;15.98;34.03
65637;DHT22;52327;42.622;23.316;2023-02-18T12:10:58;16.24;31.78
65637;DHT22;52327;42.622;23.316;2023-02-18T12:13:36;16.51;32.26
65637;DHT22;52327;42.622;23.316;2023-02-18T12:21:52;17.33;30.92
65637;DHT22;52327;42.622;23.316;2023-02-18T12:27:28;17.23;30.90
65637;DHT22;52327;42.622;23.316;2023-02-18T12:35:33;16.15;34.88
65637;DHT22;52327;42.622;23.316;2023-02-18T12:43:33;15.52;34.54
65637;DHT22;52327;42.622;23.316;2023-02-18T12:49:09;15.97;34.34
65637;DHT22;52327;42.622;23.316;2023-02-18T12:54:55;15.71;34.29
65637;DHT22;52327;42.622;23.316;2023-02-18T13:08:59;16.17;33.98
65637;DHT22;52327;42.622;23.316;2023-02-18T13:11:45;16.49;34.63
65637;DHT22;52327;42.622;23.316;2023-02-18T13:16:43;15.94;34.22
65637;DHT22;52327;42.622;23.316;2023-02-18T13:19:30;15.73;34.53
65637;DHT22;52327;42.622;23.316;2023-02-18T13:22:00;15.64;35.02
65637;DHT22;52327;42.622;23.316;2023-02-18T13:24:35;16.08;35.63
65637;DHT22;52327;42.622;23.316;2023-02-18T13:32:25;15.57;34.96
65637;DHT22;52327;42.622;23.316;2023-02-18T13:35:21;15.12;34.95
65637;DHT22;52327;42.622;23.316;2023-02-18T13:40:21;15.05;34.91
65637;DHT22;52327;42.622;23.316;2023-02-18T13:42:53;15.15;34.74
65637;DHT22;52327;42.622;23.316;2023-02-18T13:45:38;15.21;34.59
65637;DHT22;52327;42.622;23.316;2023-02-18T13:48:21;14.93;34.95
65637;DHT22;52327;42.622;23.316;2023-02-18T13:50:47;14.96;35.27
65637;DHT22;52327;42.622;23.316;2023-02-18T13:53:20;14.85;36.59
65637;DHT22;52327;42.622;23.316;2023-02-18T13:56:08;14.72;36.04
65637;DHT22;52327;42.622;23.316;2023-02-18T13:58:52;14.63;36.46
65637;DHT22;52327;42.622;23.316;2023-02-18T14:01:43;14.74;36.71
65637;DHT22;52327;42.622;23.316;2023-02-18T14:09:59;14.92;36.66
65637;DHT22;52327;42.622;23.316;2023-02-18T14:12:27;15.09;36.95
65637;DHT22;52327;42.622;23.316;2023-02-18T14:15:00;14.89;37.11
65637;DHT22;52327;42.622;23.316;2023-02-18T14:22:49;14.64;37.33
65637;DHT22;52327;42.622;23.316;2023-02-18T14:25:19;14.65;37.86
65637;DHT22;52327;42.622;23.316;2023-02-18T14:27:49;14.64;37.70
65637;DHT22;52327;42.622;23.316;2023-02-18T14:30:28;14.70;36.94
65637;DHT22;52327;42.622;23.316;2023-02-18T14:32:58;14.48;37.32
65637;DHT22;52327;42.622;23.316;2023-02-18T14:41:16;13.58;39.69
65637;DHT22;52327;42.622;23.316;2023-02-18T14:46:54;13.19;40.54
65637;DHT22;52327;42.622;23.316;2023-02-18T14:52:01;13.24;40.83
65637;DHT22;52327;42.622;23.316;2023-02-18T14:54:29;13.37;40.45
65637;DHT22;52327;42.622;23.316;2023-02-18T14:57:04;13.51;40.87
65637;DHT22;52327;42.622;23.316;2023-02-18T14:59:35;13.55;40.17
65637;DHT22;52327;42.622;23.316;2023-02-18T15:02:01;13.61;41.15
65637;DHT22;52327;42.622;23.316;2023-02-18T15:04:26;13.62;40.52
65637;DHT22;52327;42.622;23.316;2023-02-18T15:07:04;13.51;40.75
65637;DHT22;52327;42.622;23.316;2023-02-18T15:09:30;13.45;40.52
65637;DHT22;52327;42.622;23.316;2023-02-18T15:11:59;13.41;41.48
65637;DHT22;52327;42.622;23.316;2023-02-18T15:14:39;13.31;41.99
65637;DHT22;52327;42.622;23.316;2023-02-18T15:17:12;13.27;41.46
65637;DHT22;52327;42.622;23.316;2023-02-18T15:19:41;12.91;41.90
65637;DHT22;52327;42.622;23.316;2023-02-18T15:22:19;12.76;42.58
65637;DHT22;52327;42.622;23.316;2023-02-18T15:24:45;12.76;42.59
65637;DHT22;52327;42.622;23.316;2023-02-18T15:27:14;12.70;42.63
65637;DHT22;52327;42.622;23.316;2023-02-18T15:29:41;12.66;43.10
65637;DHT22;52327;42.622;23.316;2023-02-18T15:32:16;12.64;44.05
65637;DHT22;52327;42.622;23.316;2023-02-18T15:34:43;12.56;44.54
65637;DHT22;52327;42.622;23.316;2023-02-18T15:37:12;12.53;43.82
65637;DHT22;52327;42.622;23.316;2023-02-18T15:39:38;12.45;44.76
65637;DHT22;52327;42.622;23.316;2023-02-18T15:42:31;12.32;43.80
65637;DHT22;52327;42.622;23.316;2023-02-18T15:45:02;12.12;46.12
65637;DHT22;52327;42.622;23.316;2023-02-18T15:47:29;11.94;45.45
65637;DHT22;52327;42.622;23.316;2023-02-18T15:49:58;11.84;45.73
65637;DHT22;52327;42.622;23.316;2023-02-18T15:52:27;11.77;46.56
65637;DHT22;52327;42.622;23.316;2023-02-18T15:54:54;11.51;47.77
65637;DHT22;52327;42.622;23.316;2023-02-18T15:57:27;11.13;48.64
65637;DHT22;52327;42.622;23.316;2023-02-18T16:00:17;10.96;48.77
65637;DHT22;52327;42.622;23.316;2023-02-18T16:03:19;10.66;49.06
65637;DHT22;52327;42.622;23.316;2023-02-18T16:05:45;10.69;50.11
65637;DHT22;52327;42.622;23.316;2023-02-18T16:08:31;10.51;49.69
65637;DHT22;52327;42.622;23.316;2023-02-18T16:11:06;10.69;49.24
65637;DHT22;52327;42.622;23.316;2023-02-18T16:13:34;10.93;49.08
65637;DHT22;52327;42.622;23.316;2023-02-18T16:16:00;10.91;47.78
65637;DHT22;52327;42.622;23.316;2023-02-18T16:18:38;10.93;48.85
65637;DHT22;52327;42.622;23.316;2023-02-18T16:21:22;11.27;48.37
65637;DHT22;52327;42.622;23.316;2023-02-18T16:23:51;11.27;48.42
65637;DHT22;52327;42.622;23.316;2023-02-18T16:29:15;11.85;46.96
65637;DHT22;52327;42.622;23.316;2023-02-18T16:31:45;11.95;47.08
65637;DHT22;52327;42.622;23.316;2023-02-18T16:34:10;12.12;46.86
65637;DHT22;52327;42.622;23.316;2023-02-18T16:36:36;12.25;46.34
65637;DHT22;52327;42.622;23.316;2023-02-18T16:39:02;12.30;45.57
65637;DHT22;52327;42.622;23.316;2023-02-18T16:41:28;12.33;45.89
65637;DHT22;52327;42.622;23.316;2023-02-18T16:43:53;12.35;45.38
65637;DHT22;52327;42.622;23.316;2023-02-18T16:46:21;12.39;45.42
65637;DHT22;52327;42.622;23.316;2023-02-18T16:48:52;12.39;45.56
65637;DHT22;52327;42.622;23.316;2023-02-18T16:51:40;12.36;45.54
65637;DHT22;52327;42.622;23.316;2023-02-18T16:54:10;12.19;46.62
65637;DHT22;52327;42.622;23.316;2023-02-18T16:56:36;11.96;45.77
65637;DHT22;52327;42.622;23.316;2023-02-18T16:59:02;11.73;45.72
65637;DHT22;52327;42.622;23.316;2023-02-18T17:01:31;11.23;46.66
65637;DHT22;52327;42.622;23.316;2023-02-18T17:03:59;11.13;46.94
65637;DHT22;52327;42.622;23.316;2023-02-18T17:06:25;11.06;47.91
65637;DHT22;52327;42.622;23.316;2023-02-18T17:08:51;11.00;48.34
65637;DHT22;52327;42.622;23.316;2023-02-18T17:11:33;10.91;47.30
65637;DHT22;52327;42.622;23.316;2023-02-18T17:13:59;10.85;48.81
65637;DHT22;52327;42.622;23.316;2023-02-18T17:16:29;10.75;49.70
65637;DHT22;52327;42.622;23.316;2023-02-18T17:18:55;10.71;49.21
65637;DHT22;52327;42.622;23.316;2023-02-18T17:21:22;10.75;48.31
65637;DHT22;52327;42.622;23.316;2023-02-18T17:23:49;10.61;48.94
65637;DHT22;52327;42.622;23.316;2023-02-18T17:26:20;10.48;49.79
65637;DHT22;52327;42.622;23.316;2023-02-18T17:28:47;10.32;49.90
65637;DHT22;52327;42.622;23.316;2023-02-18T17:31:18;10.35;49.22
65637;DHT22;52327;42.622;23.316;2023-02-18T17:33:45;10.27;50.43
65637;DHT22;52327;42.622;23.316;2023-02-18T17:36:11;10.12;50.08
65637;DHT22;52327;42.622;23.316;2023-02-18T17:38:37;10.17;50.32
65637;DHT22;52327;42.622;23.316;2023-02-18T17:41:04;10.12;50.81
65637;DHT22;52327;42.622;23.316;2023-02-18T17:43:29;9.98;52.02
65637;DHT22;52327;42.622;23.316;2023-02-18T17:45:56;10.04;50.64
65637;DHT22;52327;42.622;23.316;2023-02-18T17:48:22;9.98;51.40
65637;DHT22;52327;42.622;23.316;2023-02-18T17:50:48;9.86;51.17
65637;DHT22;52327;42.622;23.316;2023-02-18T17:53:15;9.83;52.11
65637;DHT22;52327;42.622;23.316;2023-02-18T17:55:42;9.66;53.17
65637;DHT22;52327;42.622;23.316;2023-02-18T17:58:08;9.43;52.31
65637;DHT22;52327;42.622;23.316;2023-02-18T18:00:37;9.43;53.01